createdAt,value
2023-10-20T00:04:41.535Z,18.73
2023-10-20T00:09:44.021Z,18.79
2023-10-20T00:14:46.477Z,18.97
2023-10-20T00:19:49.283Z,18.66
2023-10-20T00:24:52.173Z,18.73
2023-10-20T00:29:54.524Z,18.48
2023-10-20T00:34:56.854Z,18.46
2023-10-20T00:39:59.663Z,18.74
2023-10-20T00:45:01.944Z,18.52
2023-10-20T00:50:06.412Z,18.45
2023-10-20T00:55:10.002Z,18.43
2023-10-20T01:00:12.920Z,18.62
2023-10-20T01:05:24.542Z,18.53
2023-10-20T01:10:26.837Z,18.37
2023-10-20T01:15:29.275Z,18.26
2023-10-20T01:20:31.991Z,18.17
2023-10-20T01:25:34.507Z,18.18
2023-10-20T01:30:36.768Z,18.28
2023-10-20T01:35:39.076Z,18.27
2023-10-20T01:40:41.479Z,18.14
2023-10-20T01:45:43.928Z,18.04
2023-10-20T01:50:46.525Z,18.17
2023-10-20T01:55:51.198Z,18.18
2023-10-20T02:00:54.102Z,17.91
2023-10-20T02:05:56.344Z,17.83
2023-10-20T02:10:58.618Z,17.79
2023-10-20T02:16:01.111Z,17.92
2023-10-20T02:21:09.521Z,17.99
2023-10-20T02:26:12.692Z,17.85
2023-10-20T02:31:19.190Z,18.14
2023-10-20T02:36:23.504Z,18.38
2023-10-20T02:41:25.913Z,18.41
2023-10-20T02:46:28.332Z,18.64
2023-10-20T02:51:30.637Z,18.68
2023-10-20T02:56:33.007Z,18.48
2023-10-20T03:01:35.310Z,18.29
2023-10-20T03:06:37.632Z,18.00
2023-10-20T03:11:39.957Z,17.91
2023-10-20T03:16:44.584Z,18.18
2023-10-20T03:21:46.852Z,17.88
2023-10-20T03:26:49.827Z,17.92
2023-10-20T03:31:52.218Z,17.78
2023-10-20T03:36:54.504Z,17.72
2023-10-20T03:41:56.823Z,17.81
2023-10-20T03:46:59.139Z,17.77
2023-10-20T03:52:02.280Z,17.85
2023-10-20T03:57:05.172Z,17.64
2023-10-20T04:02:07.490Z,17.67
2023-10-20T04:07:09.945Z,17.82
2023-10-20T04:12:12.886Z,17.44
2023-10-20T04:17:17.667Z,17.40
2023-10-20T04:22:20.207Z,17.30
2023-10-20T04:27:42.310Z,17.47
2023-10-20T04:33:06.574Z,17.30
2023-10-20T04:38:27.333Z,17.27
2023-10-20T04:43:35.841Z,17.46
2023-10-20T04:48:56.736Z,17.68
2023-10-20T04:54:23.957Z,17.57
2023-10-20T04:59:26.236Z,17.41
2023-10-20T05:04:40.232Z,17.37
2023-10-20T05:09:45.850Z,17.56
2023-10-20T05:14:51.411Z,17.48
2023-10-20T05:19:55.230Z,17.42
2023-10-20T05:24:57.491Z,17.37
2023-10-20T05:30:00.013Z,17.52
2023-10-20T05:35:02.908Z,17.48
2023-10-20T05:40:06.195Z,17.79
2023-10-20T05:45:11.785Z,17.61
2023-10-20T05:50:15.092Z,17.85
2023-10-20T05:55:17.648Z,17.79
2023-10-20T06:00:20.074Z,17.58
2023-10-20T06:05:22.870Z,17.88
2023-10-20T06:10:25.138Z,17.68
2023-10-20T06:15:28.071Z,17.93
2023-10-20T06:20:30.357Z,18.28
2023-10-20T06:25:33.500Z,18.50
2023-10-20T06:30:43.958Z,18.22
2023-10-20T06:35:53.119Z,18.27
2023-10-20T06:40:55.492Z,18.26
2023-10-20T06:45:59.125Z,18.62
2023-10-20T06:51:01.780Z,18.52
2023-10-20T06:56:14.413Z,18.52
2023-10-20T07:01:19.770Z,18.80
2023-10-20T07:06:22.369Z,18.74
2023-10-20T07:11:25.889Z,18.97
2023-10-20T07:16:29.000Z,19.38
2023-10-20T07:21:32.095Z,19.28
2023-10-20T07:26:34.608Z,19.36
2023-10-20T07:31:39.631Z,19.32
2023-10-20T07:36:42.401Z,19.51
2023-10-20T07:41:45.976Z,19.49
2023-10-20T07:46:48.350Z,19.63
2023-10-20T07:51:50.604Z,19.59
2023-10-20T07:56:53.163Z,19.86
2023-10-20T08:01:55.439Z,20.29
2023-10-20T08:07:00.932Z,20.07
2023-10-20T08:12:14.820Z,20.32
2023-10-20T08:17:17.804Z,20.26
2023-10-20T08:22:20.203Z,20.45
2023-10-20T08:27:22.825Z,20.66
2023-10-20T08:32:26.418Z,20.97
2023-10-20T08:37:30.010Z,21.08
2023-10-20T08:47:35.027Z,21.39
2023-10-20T08:52:40.026Z,21.66
2023-10-20T08:57:42.807Z,21.78
2023-10-20T09:02:45.124Z,21.77
2023-10-20T09:08:01.012Z,22.02
2023-10-20T09:13:03.268Z,22.21
2023-10-20T09:18:10.358Z,22.42
2023-10-20T09:23:13.692Z,22.63
2023-10-20T09:28:19.131Z,22.82
2023-10-20T09:33:22.843Z,23.01
2023-10-20T09:38:31.259Z,23.06
2023-10-20T09:43:37.624Z,22.99
2023-10-20T09:48:42.320Z,23.19
2023-10-20T09:53:45.896Z,22.98
2023-10-20T09:58:48.289Z,23.19
2023-10-20T10:04:10.133Z,23.29
2023-10-20T10:09:12.511Z,23.60
2023-10-20T10:14:23.169Z,23.44
2023-10-20T10:19:27.509Z,23.87
2023-10-20T10:24:33.751Z,23.87
2023-10-20T10:30:02.699Z,23.75
2023-10-20T10:35:06.024Z,23.90
2023-10-20T10:40:10.424Z,23.95
2023-10-20T10:45:24.645Z,24.26
2023-10-20T10:50:27.049Z,24.46
2023-10-20T10:55:29.541Z,24.75
2023-10-20T11:00:32.448Z,24.73
2023-10-20T11:05:35.621Z,25.26
2023-10-20T11:10:43.898Z,25.31
2023-10-20T11:15:46.376Z,25.31
2023-10-20T11:20:51.224Z,25.61
2023-10-20T11:25:53.635Z,25.32
2023-10-20T11:30:56.926Z,25.72
2023-10-20T11:36:01.894Z,25.70
2023-10-20T11:41:04.274Z,26.11
2023-10-20T11:46:08.158Z,26.07
2023-10-20T11:51:12.151Z,26.16
2023-10-20T11:56:17.012Z,26.47
2023-10-20T12:01:19.364Z,26.42
2023-10-20T12:06:22.297Z,26.74
2023-10-20T12:11:25.757Z,26.88
2023-10-20T12:16:31.595Z,27.05
2023-10-20T12:21:34.165Z,27.12
2023-10-20T12:26:38.381Z,27.28
2023-10-20T12:31:41.016Z,27.43
2023-10-20T12:36:44.484Z,27.47
2023-10-20T12:41:47.441Z,27.53
2023-10-20T12:46:49.913Z,27.74
2023-10-20T12:51:52.350Z,27.91
2023-10-20T12:56:54.711Z,27.90
2023-10-20T13:01:57.536Z,27.90
2023-10-20T13:07:01.137Z,27.92
2023-10-20T13:12:04.054Z,28.03
2023-10-20T13:17:06.695Z,28.25
2023-10-20T13:22:08.946Z,28.30
2023-10-20T13:27:11.780Z,28.39
2023-10-20T13:32:14.071Z,28.63
2023-10-20T13:37:16.389Z,28.68
2023-10-20T13:42:18.663Z,28.61
2023-10-20T13:47:21.159Z,28.69
2023-10-20T13:52:23.734Z,28.75
2023-10-20T13:57:26.463Z,28.91
2023-10-20T14:02:29.916Z,28.92
2023-10-20T14:07:33.004Z,28.77
2023-10-20T14:12:37.217Z,29.03
2023-10-20T14:17:39.594Z,28.94
2023-10-20T14:22:41.945Z,28.80
2023-10-20T14:27:44.249Z,29.01
2023-10-20T14:32:46.554Z,28.84
2023-10-20T14:37:48.896Z,28.59
2023-10-20T14:42:51.158Z,28.60
2023-10-20T14:47:53.435Z,28.38
2023-10-20T14:52:57.622Z,28.33
2023-10-20T14:58:01.050Z,28.12
2023-10-20T15:03:03.535Z,27.96
2023-10-20T15:08:06.156Z,27.62
2023-10-20T15:13:08.828Z,27.59
2023-10-20T15:18:11.340Z,27.20
2023-10-20T15:23:18.492Z,27.34
2023-10-20T15:28:22.427Z,27.20
2023-10-20T15:33:24.766Z,27.09
2023-10-20T15:38:27.036Z,26.74
2023-10-20T15:43:29.672Z,26.80
2023-10-20T15:48:32.110Z,26.32
2023-10-20T15:53:37.256Z,26.15
2023-10-20T15:58:39.630Z,25.76
2023-10-20T16:03:42.286Z,25.73
2023-10-20T16:08:44.808Z,25.70
2023-10-20T16:13:47.080Z,25.32
2023-10-20T16:18:49.425Z,25.03
2023-10-20T16:23:52.044Z,25.01
2023-10-20T16:28:54.381Z,24.92
2023-10-20T16:33:56.701Z,24.89
2023-10-20T16:38:59.227Z,24.66
2023-10-20T16:44:01.564Z,24.30
2023-10-20T16:49:03.880Z,24.27
2023-10-20T16:54:06.377Z,24.22
2023-10-20T16:59:09.281Z,23.97
2023-10-20T17:04:23.249Z,23.97
2023-10-20T17:09:25.812Z,23.82
2023-10-20T17:14:29.208Z,23.57
2023-10-20T17:19:31.492Z,23.77
2023-10-20T17:24:34.422Z,23.74
2023-10-20T17:29:38.129Z,23.37
2023-10-20T17:34:40.832Z,23.35
2023-10-20T17:39:43.059Z,23.62
2023-10-20T17:44:45.416Z,23.40
2023-10-20T17:49:47.808Z,23.21
2023-10-20T17:54:51.233Z,23.02
2023-10-20T17:59:53.645Z,23.24
2023-10-20T18:04:56.271Z,23.04
2023-10-20T18:09:58.540Z,22.89
2023-10-20T18:15:01.137Z,22.85
2023-10-20T18:20:03.520Z,22.72
2023-10-20T18:25:07.269Z,22.65
2023-10-20T18:30:10.314Z,22.91
2023-10-20T18:35:12.679Z,22.44
2023-10-20T18:40:15.091Z,22.50
2023-10-20T18:45:17.434Z,22.35
2023-10-20T18:50:19.728Z,22.47
2023-10-20T18:55:22.843Z,22.45
2023-10-20T19:00:25.303Z,22.21
2023-10-20T19:05:27.984Z,22.03
2023-10-20T19:10:31.616Z,22.32
2023-10-20T19:15:34.797Z,22.38
2023-10-20T19:20:37.689Z,22.24
2023-10-20T19:25:41.173Z,21.82
2023-10-20T19:30:44.077Z,22.13
2023-10-20T19:35:46.376Z,22.04
2023-10-20T19:40:49.090Z,22.14
2023-10-20T19:45:51.985Z,21.80
2023-10-20T19:50:54.390Z,21.77
2023-10-20T19:55:56.767Z,21.81
2023-10-20T20:01:01.947Z,21.78
2023-10-20T20:06:11.488Z,21.55
2023-10-20T20:11:16.200Z,21.61
2023-10-20T20:16:18.498Z,21.51
2023-10-20T20:21:20.921Z,21.72
2023-10-20T20:26:23.588Z,21.63
2023-10-20T20:31:26.996Z,21.52
2023-10-20T20:36:29.420Z,21.45
2023-10-20T20:41:32.349Z,21.37
2023-10-20T20:46:34.867Z,21.55
2023-10-20T20:51:37.651Z,21.12
2023-10-20T20:56:39.913Z,21.06
2023-10-20T21:01:42.611Z,21.24
2023-10-20T21:06:44.866Z,21.23
2023-10-20T21:11:47.172Z,21.04
2023-10-20T21:16:49.541Z,21.00
2023-10-20T21:21:51.813Z,20.92
2023-10-20T21:26:57.200Z,21.19
2023-10-20T21:31:59.705Z,20.99
2023-10-20T21:37:02.134Z,20.73
2023-10-20T21:42:06.307Z,20.68
2023-10-20T21:47:08.732Z,20.80
2023-10-20T21:52:10.946Z,20.75
2023-10-20T21:57:13.193Z,20.74
2023-10-20T22:02:18.080Z,20.51
2023-10-20T22:07:20.365Z,20.74
2023-10-20T22:12:22.794Z,20.60
2023-10-20T22:17:25.175Z,20.59
2023-10-20T22:22:27.997Z,20.22
2023-10-20T22:27:30.896Z,20.57
2023-10-20T22:32:33.527Z,20.42
2023-10-20T22:37:35.846Z,20.48
2023-10-20T22:42:38.208Z,20.34
2023-10-20T22:47:40.575Z,20.15
2023-10-20T22:52:43.082Z,20.46
2023-10-20T22:57:45.329Z,20.36
2023-10-20T23:02:49.564Z,20.21
2023-10-20T23:07:51.944Z,20.18
2023-10-20T23:12:54.345Z,20.15
2023-10-20T23:17:56.759Z,20.15
2023-10-20T23:22:59.137Z,20.04
2023-10-20T23:28:01.596Z,20.01
2023-10-20T23:33:06.067Z,19.71
2023-10-20T23:38:08.408Z,19.84
2023-10-20T23:43:10.794Z,19.76
2023-10-20T23:48:13.120Z,19.68
2023-10-20T23:53:15.570Z,19.73
2023-10-20T23:58:18.075Z,19.66
